createdAt,value
2023-02-13T00:01:27.436Z,-1.36
2023-02-13T00:03:55.940Z,-1.41
2023-02-13T00:06:25.802Z,-1.44
2023-02-13T00:08:54.264Z,-1.54
2023-02-13T00:11:22.766Z,-1.56
2023-02-13T00:13:51.171Z,-1.59
2023-02-13T00:16:20.550Z,-1.59
2023-02-13T00:18:48.977Z,-1.55
2023-02-13T00:21:17.426Z,-1.54
2023-02-13T00:23:48.210Z,-1.51
2023-02-13T00:26:18.358Z,-1.63
2023-02-13T00:28:48.520Z,-1.63
2023-02-13T00:31:19.016Z,-1.81
2023-02-13T00:33:47.568Z,-1.64
2023-02-13T00:36:18.234Z,-1.55
2023-02-13T00:38:48.651Z,-1.56
2023-02-13T00:41:17.937Z,-1.62
2023-02-13T00:43:46.955Z,-1.58
2023-02-13T00:46:15.943Z,-1.66
2023-02-13T00:48:45.578Z,-1.62
2023-02-13T00:51:14.201Z,-1.64
2023-02-13T00:53:42.628Z,-1.66
2023-02-13T00:56:12.516Z,-1.71
2023-02-13T00:58:40.977Z,-1.82
2023-02-13T01:01:09.484Z,-1.85
2023-02-13T01:03:38.103Z,-1.90
2023-02-13T01:06:07.429Z,-1.90
2023-02-13T01:08:35.947Z,-1.90
2023-02-13T01:11:04.395Z,-1.90
2023-02-13T01:13:34.496Z,-1.90
2023-02-13T01:16:02.963Z,-1.87
2023-02-13T01:18:31.635Z,-1.89
2023-02-13T01:21:02.175Z,-2.92
2023-02-13T01:23:34.217Z,-1.87
2023-02-13T01:26:04.569Z,-1.90
2023-02-13T01:28:34.808Z,-1.93
2023-02-13T01:31:03.769Z,-2.02
2023-02-13T01:33:32.334Z,-2.06
2023-02-13T01:36:00.767Z,-2.07
2023-02-13T01:38:29.693Z,-2.11
2023-02-13T01:40:59.277Z,-2.09
2023-02-13T01:43:46.777Z,-2.11
2023-02-13T01:46:19.189Z,-2.36
2023-02-13T01:48:50.819Z,-2.17
2023-02-13T01:51:24.562Z,-2.17
2023-02-13T01:53:59.897Z,-2.20
2023-02-13T01:56:34.613Z,-2.24
2023-02-13T01:59:09.794Z,-2.33
2023-02-13T02:01:38.722Z,-2.06
2023-02-13T02:04:11.669Z,-2.06
2023-02-13T02:06:45.570Z,-2.04
2023-02-13T02:09:27.096Z,-2.07
2023-02-13T02:12:02.024Z,-2.39
2023-02-13T02:14:32.582Z,-2.18
2023-02-13T02:17:01.015Z,-2.17
2023-02-13T02:19:39.500Z,-2.24
2023-02-13T02:22:43.172Z,-2.11
2023-02-13T02:25:42.806Z,-2.18
2023-02-13T02:28:45.057Z,-2.16
2023-02-13T02:31:55.396Z,-2.21
2023-02-13T02:34:38.624Z,-2.31
2023-02-13T02:37:17.812Z,-2.27
2023-02-13T02:39:58.367Z,-2.33
2023-02-13T02:42:36.412Z,-2.37
2023-02-13T02:45:13.305Z,-2.45
2023-02-13T02:48:07.677Z,-2.50
2023-02-13T02:50:43.079Z,-2.66
2023-02-13T02:53:26.600Z,-2.54
2023-02-13T02:56:03.212Z,-2.58
2023-02-13T02:58:56.892Z,-2.56
2023-02-13T03:01:49.354Z,-2.62
2023-02-13T03:04:39.237Z,-2.87
2023-02-13T03:07:13.210Z,-2.66
2023-02-13T03:10:01.689Z,-2.63
2023-02-13T03:12:59.761Z,-2.88
2023-02-13T03:15:30.162Z,-2.64
2023-02-13T03:18:17.872Z,-2.63
2023-02-13T03:21:10.540Z,-2.64
2023-02-13T03:23:50.866Z,-2.64
2023-02-13T03:26:50.757Z,-2.61
2023-02-13T03:29:55.293Z,-2.59
2023-02-13T03:32:29.442Z,-2.61
2023-02-13T03:35:31.122Z,-2.64
2023-02-13T03:38:05.703Z,-2.73
2023-02-13T03:41:02.877Z,-2.71
2023-02-13T03:43:37.057Z,-2.82
2023-02-13T03:46:06.898Z,-2.84
2023-02-13T03:48:56.436Z,-2.85
2023-02-13T03:51:30.749Z,-2.86
2023-02-13T03:54:03.499Z,-2.79
2023-02-13T03:56:53.451Z,-2.83
2023-02-13T03:59:28.069Z,-2.87
2023-02-13T04:02:06.247Z,-2.83
2023-02-13T04:04:45.185Z,-2.84
2023-02-13T04:07:29.787Z,-2.88
2023-02-13T04:10:00.696Z,-2.90
2023-02-13T04:12:40.382Z,-2.90
2023-02-13T04:15:16.010Z,-2.94
2023-02-13T04:17:48.472Z,-3.00
2023-02-13T04:20:17.394Z,-3.06
2023-02-13T04:22:46.363Z,-3.12
2023-02-13T04:25:16.854Z,-3.17
2023-02-13T04:27:46.759Z,-3.22
2023-02-13T04:30:15.998Z,-3.27
2023-02-13T04:32:44.553Z,-3.27
2023-02-13T04:35:13.879Z,-3.21
2023-02-13T04:37:42.364Z,-3.21
2023-02-13T04:40:11.822Z,-3.18
2023-02-13T04:42:40.294Z,-3.18
2023-02-13T04:45:11.468Z,-3.19
2023-02-13T04:47:39.917Z,-3.18
2023-02-13T04:50:09.533Z,-3.16
2023-02-13T04:52:37.982Z,-3.12
2023-02-13T04:55:07.009Z,-3.15
2023-02-13T04:57:35.444Z,-3.19
2023-02-13T05:00:04.114Z,-2.80
2023-02-13T05:02:34.195Z,-2.97
2023-02-13T05:05:02.625Z,-3.05
2023-02-13T05:07:30.984Z,-3.09
2023-02-13T05:09:59.395Z,-3.11
2023-02-13T05:12:27.950Z,-3.00
2023-02-13T05:14:56.306Z,-2.99
2023-02-13T05:17:27.265Z,-3.00
2023-02-13T05:19:59.345Z,-3.10
2023-02-13T05:22:45.280Z,-3.07
2023-02-13T05:25:13.673Z,-3.12
2023-02-13T05:27:42.143Z,-3.17
2023-02-13T05:30:11.598Z,-3.20
2023-02-13T05:32:40.282Z,-3.26
2023-02-13T05:35:10.737Z,-3.16
2023-02-13T05:37:39.161Z,-3.21
2023-02-13T05:40:09.047Z,-3.19
2023-02-13T05:42:37.404Z,-3.28
2023-02-13T05:45:06.642Z,-3.33
2023-02-13T05:47:35.090Z,-3.42
2023-02-13T05:50:03.605Z,-3.41
2023-02-13T05:52:33.448Z,-3.34
2023-02-13T05:55:02.143Z,-3.37
2023-02-13T05:57:30.576Z,-3.42
2023-02-13T05:59:59.770Z,-3.47
2023-02-13T06:02:28.175Z,-3.51
2023-02-13T06:04:56.719Z,-3.49
2023-02-13T06:07:25.103Z,-3.41
2023-02-13T06:09:54.933Z,-3.33
2023-02-13T06:12:23.336Z,-3.33
2023-02-13T06:14:51.695Z,-3.33
2023-02-13T06:17:20.158Z,-3.39
2023-02-13T06:19:48.522Z,-3.39
2023-02-13T06:22:16.891Z,-3.35
2023-02-13T06:24:45.224Z,-3.41
2023-02-13T06:27:15.052Z,-3.50
2023-02-13T06:29:43.461Z,-3.57
2023-02-13T06:32:11.807Z,-3.53
2023-02-13T06:34:40.329Z,-3.57
2023-02-13T06:37:08.758Z,-3.64
2023-02-13T06:39:37.069Z,-3.65
2023-02-13T06:42:05.743Z,-3.67
2023-02-13T06:44:35.491Z,-3.65
2023-02-13T06:47:03.947Z,-3.65
2023-02-13T06:49:32.652Z,-3.63
2023-02-13T06:52:01.105Z,-3.64
2023-02-13T06:54:44.993Z,-3.67
2023-02-13T06:57:16.075Z,-3.64
2023-02-13T06:59:45.807Z,-3.63
2023-02-13T07:02:14.722Z,-3.60
2023-02-13T07:04:43.214Z,-3.64
2023-02-13T07:07:11.625Z,-3.65
2023-02-13T07:09:41.243Z,-3.63
2023-02-13T07:12:09.869Z,-3.56
2023-02-13T07:14:38.186Z,-3.54
2023-02-13T07:17:08.073Z,-3.47
2023-02-13T07:19:36.501Z,-3.45
2023-02-13T07:22:04.991Z,-3.42
2023-02-13T07:24:35.504Z,-3.37
2023-02-13T07:27:03.975Z,-3.34
2023-02-13T07:29:32.477Z,-3.26
2023-02-13T07:32:01.023Z,-3.17
2023-02-13T07:34:32.272Z,-3.07
2023-02-13T07:37:00.743Z,-3.00
2023-02-13T07:39:29.292Z,-2.98
2023-02-13T07:41:58.516Z,-2.85
2023-02-13T07:44:28.120Z,-2.74
2023-02-13T07:46:56.650Z,-2.53
2023-02-13T07:49:25.063Z,-2.18
2023-02-13T07:51:54.878Z,-1.83
2023-02-13T07:54:24.250Z,-1.43
2023-02-13T07:56:52.745Z,-1.03
2023-02-13T07:59:21.136Z,-0.55
2023-02-13T08:01:49.682Z,-0.15
2023-02-13T08:04:18.403Z,0.28
2023-02-13T08:06:46.949Z,0.73
2023-02-13T08:09:39.670Z,1.16
2023-02-13T08:12:11.649Z,0.81
2023-02-13T08:14:40.151Z,2.17
2023-02-13T08:17:08.564Z,2.42
2023-02-13T08:19:36.979Z,2.66
2023-02-13T08:22:05.487Z,2.90
2023-02-13T08:24:35.622Z,2.98
2023-02-13T08:27:04.147Z,3.37
2023-02-13T08:29:32.968Z,3.55
2023-02-13T08:32:01.455Z,3.58
2023-02-13T08:34:31.006Z,3.74
2023-02-13T08:37:00.412Z,3.79
2023-02-13T08:39:29.128Z,3.84
2023-02-13T08:41:59.295Z,3.95
2023-02-13T08:44:27.946Z,3.98
2023-02-13T08:46:56.933Z,4.09
2023-02-13T08:49:25.267Z,4.15
2023-02-13T08:51:53.687Z,4.13
2023-02-13T08:54:22.135Z,4.17
2023-02-13T08:56:50.483Z,4.27
2023-02-13T08:59:20.267Z,4.26
2023-02-13T09:01:49.060Z,4.38
2023-02-13T09:04:18.513Z,4.52
2023-02-13T09:06:47.063Z,4.67
2023-02-13T09:09:16.260Z,4.79
2023-02-13T09:11:44.665Z,4.91
2023-02-13T09:14:13.050Z,5.04
2023-02-13T09:16:43.873Z,5.16
2023-02-13T09:19:12.255Z,5.24
2023-02-13T09:21:40.669Z,5.37
2023-02-13T09:24:09.715Z,5.43
2023-02-13T09:26:38.244Z,5.52
2023-02-13T09:29:06.729Z,5.60
2023-02-13T09:31:35.340Z,5.63
2023-02-13T09:34:05.399Z,5.72
2023-02-13T09:36:36.378Z,5.80
2023-02-13T09:39:04.936Z,5.87
2023-02-13T09:41:38.276Z,5.73
2023-02-13T09:44:12.836Z,5.81
2023-02-13T09:46:44.328Z,6.14
2023-02-13T09:49:18.347Z,6.00
2023-02-13T09:51:54.270Z,5.56
2023-02-13T09:54:22.887Z,6.42
2023-02-13T09:57:00.750Z,5.31
2023-02-13T09:59:44.076Z,5.98
2023-02-13T10:02:46.522Z,5.32
2023-02-13T10:05:44.294Z,5.69
2023-02-13T10:08:27.025Z,5.59
2023-02-13T10:11:06.943Z,6.75
2023-02-13T10:13:54.794Z,4.75
2023-02-13T10:16:27.129Z,6.86
2023-02-13T10:19:02.339Z,6.11
2023-02-13T10:21:36.758Z,7.41
2023-02-13T10:24:13.181Z,7.52
2023-02-13T10:26:45.853Z,7.56
2023-02-13T10:29:36.371Z,6.37
2023-02-13T10:32:08.540Z,6.52
2023-02-13T10:34:42.712Z,6.63
2023-02-13T10:37:17.334Z,7.34
2023-02-13T10:39:49.664Z,6.85
2023-02-13T10:42:29.004Z,6.90
2023-02-13T10:45:08.935Z,6.99
2023-02-13T10:47:50.539Z,7.11
2023-02-13T10:50:28.113Z,8.12
2023-02-13T10:53:15.275Z,8.41
2023-02-13T10:56:05.056Z,7.17
2023-02-13T10:58:46.686Z,7.36
2023-02-13T11:01:26.694Z,7.24
2023-02-13T11:04:06.586Z,7.68
2023-02-13T11:06:38.017Z,7.75
2023-02-13T11:09:08.678Z,9.08
2023-02-13T11:11:40.522Z,9.23
2023-02-13T11:14:15.778Z,9.32
2023-02-13T11:16:57.283Z,9.39
2023-02-13T11:19:34.148Z,9.29
2023-02-13T11:22:06.989Z,9.55
2023-02-13T11:24:38.071Z,9.78
2023-02-13T11:27:13.036Z,9.98
2023-02-13T11:29:54.090Z,9.99
2023-02-13T11:32:24.908Z,10.33
2023-02-13T11:34:55.014Z,10.38
2023-02-13T11:37:29.025Z,10.64
2023-02-13T11:40:01.607Z,10.67
2023-02-13T11:42:32.902Z,10.51
2023-02-13T11:45:03.883Z,10.81
2023-02-13T11:47:40.740Z,10.43
2023-02-13T11:50:22.634Z,9.81
2023-02-13T11:52:58.143Z,10.81
2023-02-13T11:55:31.222Z,11.06
2023-02-13T11:58:02.181Z,10.84
2023-02-13T12:00:40.227Z,11.54
2023-02-13T12:03:28.130Z,11.63
2023-02-13T12:06:05.792Z,11.63
2023-02-13T12:08:36.314Z,11.72
2023-02-13T12:11:15.912Z,11.71
2023-02-13T12:13:45.437Z,11.69
2023-02-13T12:16:21.467Z,11.95
2023-02-13T12:18:54.599Z,11.70
2023-02-13T12:21:38.457Z,12.12
2023-02-13T12:24:20.887Z,12.23
2023-02-13T12:26:59.966Z,12.01
2023-02-13T12:29:51.138Z,12.07
2023-02-13T12:32:21.085Z,11.89
2023-02-13T12:35:35.057Z,12.48
2023-02-13T12:38:08.627Z,12.54
2023-02-13T12:41:01.630Z,12.43
2023-02-13T12:43:48.976Z,12.50
2023-02-13T12:46:29.981Z,12.71
2023-02-13T12:49:06.057Z,12.38
2023-02-13T12:51:46.633Z,11.57
2023-02-13T12:54:35.133Z,11.72
2023-02-13T12:57:20.549Z,11.58
2023-02-13T13:00:07.318Z,12.80
2023-02-13T13:03:11.205Z,12.97
2023-02-13T13:06:10.866Z,12.62
2023-02-13T13:09:03.209Z,13.01
2023-02-13T13:11:52.185Z,12.19
2023-02-13T13:14:28.887Z,12.03
2023-02-13T13:17:06.495Z,12.77
2023-02-13T13:19:46.883Z,12.29
2023-02-13T13:22:21.571Z,12.34
2023-02-13T13:25:02.241Z,13.51
2023-02-13T13:27:34.627Z,13.08
2023-02-13T13:30:06.394Z,13.51
2023-02-13T13:32:38.017Z,13.36
2023-02-13T13:35:07.896Z,12.95
2023-02-13T13:37:42.970Z,12.92
2023-02-13T13:40:30.575Z,13.34
2023-02-13T13:43:05.284Z,12.56
2023-02-13T13:45:44.300Z,12.92
2023-02-13T13:48:40.623Z,12.95
2023-02-13T13:51:11.004Z,12.83
2023-02-13T13:54:17.956Z,12.47
2023-02-13T13:57:08.827Z,13.03
2023-02-13T14:00:03.511Z,13.00
2023-02-13T14:02:42.354Z,12.76
2023-02-13T14:05:28.208Z,12.83
2023-02-13T14:07:58.535Z,12.66
2023-02-13T14:11:09.708Z,13.10
2023-02-13T14:13:40.256Z,12.71
2023-02-13T14:16:12.690Z,12.05
2023-02-13T14:18:49.237Z,12.16
2023-02-13T14:21:25.918Z,12.13
2023-02-13T14:23:54.612Z,13.16
2023-02-13T14:26:35.939Z,13.21
2023-02-13T14:29:23.861Z,12.07
2023-02-13T14:32:02.069Z,12.13
2023-02-13T14:34:33.195Z,13.15
2023-02-13T14:37:21.129Z,12.26
2023-02-13T14:40:31.673Z,13.30
2023-02-13T14:43:08.507Z,13.28
2023-02-13T14:45:49.037Z,13.06
2023-02-13T14:48:17.600Z,13.34
2023-02-13T14:50:48.800Z,12.93
2023-02-13T14:53:25.335Z,13.34
2023-02-13T14:56:00.410Z,13.17
2023-02-13T14:58:33.812Z,13.29
2023-02-13T15:01:06.275Z,13.13
2023-02-13T15:03:45.424Z,13.20
2023-02-13T15:06:23.768Z,13.20
2023-02-13T15:08:54.602Z,11.86
2023-02-13T15:11:38.884Z,12.61
2023-02-13T15:14:22.067Z,13.17
2023-02-13T15:16:56.154Z,13.13
2023-02-13T15:19:26.149Z,13.07
2023-02-13T15:21:57.931Z,11.96
2023-02-13T15:24:29.956Z,12.61
2023-02-13T15:27:03.007Z,13.08
2023-02-13T15:29:44.209Z,12.71
2023-02-13T15:32:22.208Z,13.02
2023-02-13T15:34:50.809Z,13.00
2023-02-13T15:37:23.857Z,12.96
2023-02-13T15:39:53.826Z,12.89
2023-02-13T15:42:22.907Z,12.88
2023-02-13T15:44:54.407Z,12.52
2023-02-13T15:47:28.820Z,12.77
2023-02-13T15:49:58.754Z,12.42
2023-02-13T15:52:33.284Z,12.17
2023-02-13T15:55:03.441Z,12.76
2023-02-13T15:57:32.569Z,11.57
2023-02-13T16:00:02.400Z,12.44
2023-02-13T16:02:45.767Z,12.26
2023-02-13T16:05:17.172Z,12.23
2023-02-13T16:07:52.750Z,12.15
2023-02-13T16:10:29.298Z,12.11
2023-02-13T16:12:59.526Z,12.18
2023-02-13T16:15:31.729Z,12.48
2023-02-13T16:18:00.611Z,12.34
2023-02-13T16:20:30.304Z,12.38
2023-02-13T16:23:02.813Z,12.00
2023-02-13T16:25:36.564Z,12.25
2023-02-13T16:28:16.407Z,12.04
2023-02-13T16:30:46.582Z,12.03
2023-02-13T16:33:28.848Z,11.95
2023-02-13T16:35:58.585Z,11.76
2023-02-13T16:38:33.597Z,11.80
2023-02-13T16:41:06.032Z,11.71
2023-02-13T16:43:36.284Z,11.62
2023-02-13T16:46:21.967Z,11.50
2023-02-13T16:49:05.844Z,11.22
2023-02-13T16:51:39.088Z,11.32
2023-02-13T16:54:19.424Z,11.26
2023-02-13T16:56:52.011Z,11.09
2023-02-13T16:59:29.621Z,11.08
2023-02-13T17:02:15.727Z,10.99
2023-02-13T17:04:46.315Z,10.89
2023-02-13T17:07:17.351Z,10.80
2023-02-13T17:09:45.870Z,10.74
2023-02-13T17:12:19.539Z,10.67
2023-02-13T17:14:48.190Z,10.38
2023-02-13T17:17:19.065Z,10.09
2023-02-13T17:19:48.162Z,9.94
2023-02-13T17:22:24.619Z,9.65
2023-02-13T17:24:53.204Z,9.38
2023-02-13T17:27:24.057Z,9.21
2023-02-13T17:29:52.541Z,9.06
2023-02-13T17:32:24.657Z,9.00
2023-02-13T17:34:53.484Z,8.80
2023-02-13T17:37:24.280Z,8.44
2023-02-13T17:39:53.801Z,8.37
2023-02-13T17:42:26.374Z,7.83
2023-02-13T17:44:55.938Z,7.63
2023-02-13T17:47:25.446Z,7.35
2023-02-13T17:50:01.908Z,7.17
2023-02-13T17:52:32.268Z,6.93
2023-02-13T17:55:00.792Z,6.72
2023-02-13T17:57:30.768Z,6.68
2023-02-13T18:00:03.608Z,6.70
2023-02-13T18:02:42.700Z,6.58
2023-02-13T18:05:11.457Z,6.39
2023-02-13T18:07:41.626Z,6.19
2023-02-13T18:10:13.264Z,6.02
2023-02-13T18:12:43.962Z,5.90
2023-02-13T18:15:13.145Z,5.75
2023-02-13T18:17:42.022Z,5.63
2023-02-13T18:20:14.890Z,5.62
2023-02-13T18:22:43.224Z,5.66
2023-02-13T18:25:13.423Z,5.75
2023-02-13T18:27:43.261Z,5.42
2023-02-13T18:30:14.493Z,5.36
2023-02-13T18:32:43.194Z,5.36
2023-02-13T18:35:11.680Z,5.31
2023-02-13T18:37:41.114Z,5.16
2023-02-13T18:40:10.693Z,5.04
2023-02-13T18:42:40.011Z,4.94
2023-02-13T18:45:11.263Z,4.91
2023-02-13T18:47:39.747Z,4.84
2023-02-13T18:50:10.052Z,4.90
2023-02-13T18:52:38.677Z,4.86
2023-02-13T18:55:07.850Z,4.67
2023-02-13T18:57:36.593Z,4.54
2023-02-13T19:00:07.322Z,4.52
2023-02-13T19:02:37.211Z,4.51
2023-02-13T19:05:06.483Z,4.48
2023-02-13T19:07:34.972Z,4.46
2023-02-13T19:10:03.617Z,4.32
2023-02-13T19:12:32.068Z,4.41
2023-02-13T19:15:00.476Z,4.40
2023-02-13T19:17:28.856Z,4.43
2023-02-13T19:19:58.688Z,4.41
2023-02-13T19:22:27.380Z,4.33
2023-02-13T19:24:55.904Z,4.22
2023-02-13T19:27:24.385Z,3.98
2023-02-13T19:29:52.777Z,3.75
2023-02-13T19:32:21.234Z,3.57
2023-02-13T19:34:49.669Z,3.53
2023-02-13T19:37:19.423Z,4.61
2023-02-13T19:39:47.725Z,4.14
2023-02-13T19:42:16.116Z,3.79
2023-02-13T19:44:44.540Z,3.48
2023-02-13T19:47:13.042Z,3.29
2023-02-13T19:49:41.372Z,3.16
2023-02-13T19:52:09.744Z,3.04
2023-02-13T19:54:40.234Z,2.93
2023-02-13T19:57:08.844Z,2.89
2023-02-13T19:59:37.224Z,2.81
2023-02-13T20:02:05.615Z,2.84
2023-02-13T20:04:36.854Z,2.84
2023-02-13T20:07:06.232Z,3.73
2023-02-13T20:09:37.949Z,3.21
2023-02-13T20:12:08.789Z,2.98
2023-02-13T20:14:37.242Z,2.79
2023-02-13T20:17:06.034Z,3.79
2023-02-13T20:19:34.414Z,3.06
2023-02-13T20:22:02.980Z,2.67
2023-02-13T20:24:33.171Z,1.68
2023-02-13T20:27:01.584Z,2.37
2023-02-13T20:29:31.585Z,2.34
2023-02-13T20:32:00.204Z,2.39
2023-02-13T20:34:31.603Z,2.31
2023-02-13T20:37:06.092Z,2.12
2023-02-13T20:39:34.588Z,2.18
2023-02-13T20:42:03.168Z,2.08
2023-02-13T20:44:33.205Z,1.99
2023-02-13T20:47:01.618Z,2.02
2023-02-13T20:49:30.642Z,1.97
2023-02-13T20:51:59.132Z,1.94
2023-02-13T20:54:27.569Z,1.87
2023-02-13T20:56:56.068Z,1.84
2023-02-13T20:59:24.448Z,1.72
2023-02-13T21:01:54.409Z,1.64
2023-02-13T21:04:22.865Z,1.57
2023-02-13T21:06:51.341Z,1.44
2023-02-13T21:09:20.346Z,1.36
2023-02-13T21:11:48.924Z,1.28
2023-02-13T21:14:17.327Z,1.21
2023-02-13T21:16:45.873Z,1.09
2023-02-13T21:19:19.094Z,0.11
2023-02-13T21:21:48.262Z,1.05
2023-02-13T21:24:18.768Z,0.94
2023-02-13T21:26:48.132Z,0.98
2023-02-13T21:29:16.591Z,0.92
2023-02-13T21:31:47.934Z,0.87
2023-02-13T21:34:18.853Z,0.84
2023-02-13T21:36:47.372Z,0.86
2023-02-13T21:39:15.948Z,0.93
2023-02-13T21:41:45.907Z,1.07
2023-02-13T21:44:15.281Z,1.15
2023-02-13T21:46:45.068Z,1.17
2023-02-13T21:49:15.165Z,1.14
2023-02-13T21:51:45.509Z,1.00
2023-02-13T21:54:14.282Z,0.82
2023-02-13T21:56:44.276Z,0.02
2023-02-13T21:59:15.915Z,0.60
2023-02-13T22:01:50.299Z,0.38
2023-02-13T22:04:19.527Z,0.54
2023-02-13T22:06:52.222Z,0.57
2023-02-13T22:09:22.772Z,0.60
2023-02-13T22:11:52.069Z,0.53
2023-02-13T22:14:20.566Z,0.52
2023-02-13T22:16:51.374Z,0.47
2023-02-13T22:19:20.399Z,0.30
2023-02-13T22:21:50.479Z,0.38
2023-02-13T22:24:18.932Z,0.41
2023-02-13T22:26:47.290Z,0.35
2023-02-13T22:29:18.616Z,0.29
2023-02-13T22:31:48.191Z,0.24
2023-02-13T22:34:17.002Z,0.24
2023-02-13T22:36:46.015Z,0.18
2023-02-13T22:39:16.590Z,0.12
2023-02-13T22:41:45.965Z,0.08
2023-02-13T22:44:14.446Z,0.08
2023-02-13T22:46:43.018Z,0.07
2023-02-13T22:49:11.403Z,0.08
2023-02-13T22:51:39.771Z,0.06
2023-02-13T22:54:08.204Z,0.06
2023-02-13T22:56:38.037Z,0.04
2023-02-13T22:59:06.557Z,-0.00
2023-02-13T23:01:35.619Z,-0.06
2023-02-13T23:04:04.063Z,-0.10
2023-02-13T23:06:32.460Z,-0.13
2023-02-13T23:09:02.054Z,-0.13
2023-02-13T23:11:47.650Z,-0.08
2023-02-13T23:14:18.478Z,0.02
2023-02-13T23:17:04.561Z,0.07
2023-02-13T23:19:33.364Z,-0.01
2023-02-13T23:22:01.938Z,-0.01
2023-02-13T23:24:31.937Z,0.06
2023-02-13T23:27:01.192Z,0.02
2023-02-13T23:29:31.353Z,-0.07
2023-02-13T23:31:59.921Z,-0.13
2023-02-13T23:34:28.414Z,-0.05
2023-02-13T23:36:56.928Z,-0.09
2023-02-13T23:39:25.496Z,-0.15
2023-02-13T23:41:53.934Z,-0.14
2023-02-13T23:44:22.369Z,-0.20
2023-02-13T23:46:52.154Z,-0.26
2023-02-13T23:49:21.105Z,-0.36
2023-02-13T23:51:49.900Z,-0.39
2023-02-13T23:54:19.767Z,-0.43
2023-02-13T23:56:50.108Z,-0.47
2023-02-13T23:59:19.397Z,-0.44
